sensor_id;sensor_type;location;lat;lon;timestamp;pressure;altitude;pressure_sealevel;temperature
68743;BMP180;55725;42.758;26.702;2023-04-25T00:00:48;98606.00;;;10.60
68743;BMP180;55725;42.758;26.702;2023-04-25T00:02:28;98609.00;;;10.60
68743;BMP180;55725;42.758;26.702;2023-04-25T00:04:08;98604.00;;;10.40
68743;BMP180;55725;42.758;26.702;2023-04-25T00:05:49;98601.00;;;10.20
68743;BMP180;55725;42.758;26.702;2023-04-25T00:07:31;98603.00;;;10.40
68743;BMP180;55725;42.758;26.702;2023-04-25T00:09:12;98601.00;;;10.30
68743;BMP180;55725;42.758;26.702;2023-04-25T00:10:52;98609.00;;;10.20
68743;BMP180;55725;42.758;26.702;2023-04-25T00:12:32;98605.00;;;10.10
68743;BMP180;55725;42.758;26.702;2023-04-25T00:14:13;98600.00;;;10.20
68743;BMP180;55725;42.758;26.702;2023-04-25T00:15:54;98596.00;;;10.40
68743;BMP180;55725;42.758;26.702;2023-04-25T00:17:34;98609.00;;;10.10
68743;BMP180;55725;42.758;26.702;2023-04-25T00:19:15;98606.00;;;10.00
68743;BMP180;55725;42.758;26.702;2023-04-25T00:20:55;98600.00;;;10.00
68743;BMP180;55725;42.758;26.702;2023-04-25T00:22:36;98605.00;;;10.00
68743;BMP180;55725;42.758;26.702;2023-04-25T00:24:17;98602.00;;;9.90
68743;BMP180;55725;42.758;26.702;2023-04-25T00:25:57;98605.00;;;10.20
68743;BMP180;55725;42.758;26.702;2023-04-25T00:27:37;98606.00;;;10.10
68743;BMP180;55725;42.758;26.702;2023-04-25T00:29:19;98600.00;;;10.00
68743;BMP180;55725;42.758;26.702;2023-04-25T00:30:59;98603.00;;;10.00
68743;BMP180;55725;42.758;26.702;2023-04-25T00:32:39;98590.00;;;10.00
68743;BMP180;55725;42.758;26.702;2023-04-25T00:34:20;98587.00;;;9.90
68743;BMP180;55725;42.758;26.702;2023-04-25T00:36:00;98590.00;;;9.70
68743;BMP180;55725;42.758;26.702;2023-04-25T00:37:40;98586.00;;;9.60
68743;BMP180;55725;42.758;26.702;2023-04-25T00:39:21;98587.00;;;9.60
68743;BMP180;55725;42.758;26.702;2023-04-25T00:41:01;98585.00;;;9.90
68743;BMP180;55725;42.758;26.702;2023-04-25T00:42:41;98576.00;;;9.60
68743;BMP180;55725;42.758;26.702;2023-04-25T00:44:22;98578.00;;;9.40
68743;BMP180;55725;42.758;26.702;2023-04-25T00:46:03;98572.00;;;9.50
68743;BMP180;55725;42.758;26.702;2023-04-25T00:47:43;98578.00;;;9.60
68743;BMP180;55725;42.758;26.702;2023-04-25T00:49:24;98572.00;;;9.40
68743;BMP180;55725;42.758;26.702;2023-04-25T00:51:04;98569.00;;;9.30
68743;BMP180;55725;42.758;26.702;2023-04-25T00:52:45;98571.00;;;9.50
68743;BMP180;55725;42.758;26.702;2023-04-25T00:54:25;98567.00;;;9.70
68743;BMP180;55725;42.758;26.702;2023-04-25T00:56:05;98570.00;;;9.80
68743;BMP180;55725;42.758;26.702;2023-04-25T00:57:46;98569.00;;;9.40
68743;BMP180;55725;42.758;26.702;2023-04-25T00:59:27;98561.00;;;9.50
68743;BMP180;55725;42.758;26.702;2023-04-25T01:01:08;98571.00;;;9.90
68743;BMP180;55725;42.758;26.702;2023-04-25T01:02:48;98568.00;;;9.50
68743;BMP180;55725;42.758;26.702;2023-04-25T01:04:29;98551.00;;;9.70
68743;BMP180;55725;42.758;26.702;2023-04-25T01:06:10;98557.00;;;9.60
68743;BMP180;55725;42.758;26.702;2023-04-25T01:07:50;98560.00;;;9.50
68743;BMP180;55725;42.758;26.702;2023-04-25T01:09:31;98553.00;;;9.40
68743;BMP180;55725;42.758;26.702;2023-04-25T01:11:14;98537.00;;;9.40
68743;BMP180;55725;42.758;26.702;2023-04-25T01:12:54;98537.00;;;9.50
68743;BMP180;55725;42.758;26.702;2023-04-25T01:14:35;98550.00;;;9.60
68743;BMP180;55725;42.758;26.702;2023-04-25T01:16:15;98542.00;;;9.60
68743;BMP180;55725;42.758;26.702;2023-04-25T01:17:56;98538.00;;;9.40
68743;BMP180;55725;42.758;26.702;2023-04-25T01:19:37;98530.00;;;9.20
68743;BMP180;55725;42.758;26.702;2023-04-25T01:21:17;98536.00;;;9.30
68743;BMP180;55725;42.758;26.702;2023-04-25T01:22:57;98537.00;;;9.50
68743;BMP180;55725;42.758;26.702;2023-04-25T01:24:38;98522.00;;;9.60
68743;BMP180;55725;42.758;26.702;2023-04-25T01:26:18;98524.00;;;9.40
68743;BMP180;55725;42.758;26.702;2023-04-25T01:28:01;98517.00;;;9.30
68743;BMP180;55725;42.758;26.702;2023-04-25T01:29:41;98507.00;;;9.30
68743;BMP180;55725;42.758;26.702;2023-04-25T01:31:22;98513.00;;;9.40
68743;BMP180;55725;42.758;26.702;2023-04-25T01:33:02;98507.00;;;9.30
68743;BMP180;55725;42.758;26.702;2023-04-25T01:34:44;98517.00;;;9.00
68743;BMP180;55725;42.758;26.702;2023-04-25T01:36:24;98506.00;;;9.40
68743;BMP180;55725;42.758;26.702;2023-04-25T01:38:05;98496.00;;;9.30
68743;BMP180;55725;42.758;26.702;2023-04-25T01:39:45;98500.00;;;9.40
68743;BMP180;55725;42.758;26.702;2023-04-25T01:41:26;98506.00;;;9.20
68743;BMP180;55725;42.758;26.702;2023-04-25T01:43:07;98492.00;;;9.30
68743;BMP180;55725;42.758;26.702;2023-04-25T01:44:50;98497.00;;;9.40
68743;BMP180;55725;42.758;26.702;2023-04-25T01:46:31;98509.00;;;9.30
68743;BMP180;55725;42.758;26.702;2023-04-25T01:48:12;98504.00;;;9.60
68743;BMP180;55725;42.758;26.702;2023-04-25T01:49:52;98507.00;;;9.20
68743;BMP180;55725;42.758;26.702;2023-04-25T01:51:32;98509.00;;;8.80
68743;BMP180;55725;42.758;26.702;2023-04-25T01:53:13;98500.00;;;9.10
68743;BMP180;55725;42.758;26.702;2023-04-25T01:54:55;98502.00;;;9.20
68743;BMP180;55725;42.758;26.702;2023-04-25T01:56:37;98500.00;;;9.00
68743;BMP180;55725;42.758;26.702;2023-04-25T01:58:17;98493.00;;;9.30
68743;BMP180;55725;42.758;26.702;2023-04-25T01:59:58;98491.00;;;9.30
68743;BMP180;55725;42.758;26.702;2023-04-25T02:01:39;98487.00;;;9.00
68743;BMP180;55725;42.758;26.702;2023-04-25T02:03:19;98487.00;;;8.70
68743;BMP180;55725;42.758;26.702;2023-04-25T02:04:59;98491.00;;;8.90
68743;BMP180;55725;42.758;26.702;2023-04-25T02:06:40;98479.00;;;9.10
68743;BMP180;55725;42.758;26.702;2023-04-25T02:08:20;98471.00;;;8.90
68743;BMP180;55725;42.758;26.702;2023-04-25T02:10:00;98470.00;;;8.60
68743;BMP180;55725;42.758;26.702;2023-04-25T02:11:41;98478.00;;;8.60
68743;BMP180;55725;42.758;26.702;2023-04-25T02:13:21;98472.00;;;8.50
68743;BMP180;55725;42.758;26.702;2023-04-25T02:15:02;98471.00;;;8.60
68743;BMP180;55725;42.758;26.702;2023-04-25T02:16:42;98470.00;;;8.40
68743;BMP180;55725;42.758;26.702;2023-04-25T02:18:23;98477.00;;;8.60
68743;BMP180;55725;42.758;26.702;2023-04-25T02:20:04;98477.00;;;8.50
68743;BMP180;55725;42.758;26.702;2023-04-25T02:21:45;98466.00;;;8.80
68743;BMP180;55725;42.758;26.702;2023-04-25T02:23:25;98481.00;;;8.90
68743;BMP180;55725;42.758;26.702;2023-04-25T02:25:06;98474.00;;;8.50
68743;BMP180;55725;42.758;26.702;2023-04-25T02:26:46;98471.00;;;8.80
68743;BMP180;55725;42.758;26.702;2023-04-25T02:28:26;98469.00;;;8.80
68743;BMP180;55725;42.758;26.702;2023-04-25T02:30:07;98465.00;;;8.40
68743;BMP180;55725;42.758;26.702;2023-04-25T02:31:47;98465.00;;;8.40
68743;BMP180;55725;42.758;26.702;2023-04-25T02:33:28;98462.00;;;8.60
68743;BMP180;55725;42.758;26.702;2023-04-25T02:35:08;98458.00;;;8.60
68743;BMP180;55725;42.758;26.702;2023-04-25T02:36:49;98453.00;;;8.60
68743;BMP180;55725;42.758;26.702;2023-04-25T02:38:32;98460.00;;;8.60
68743;BMP180;55725;42.758;26.702;2023-04-25T02:40:12;98453.00;;;8.60
68743;BMP180;55725;42.758;26.702;2023-04-25T02:41:52;98446.00;;;8.50
68743;BMP180;55725;42.758;26.702;2023-04-25T02:43:33;98460.00;;;8.60
68743;BMP180;55725;42.758;26.702;2023-04-25T02:45:13;98463.00;;;8.10
68743;BMP180;55725;42.758;26.702;2023-04-25T02:46:54;98464.00;;;8.20
68743;BMP180;55725;42.758;26.702;2023-04-25T02:48:34;98458.00;;;8.20
68743;BMP180;55725;42.758;26.702;2023-04-25T02:50:15;98453.00;;;8.40
68743;BMP180;55725;42.758;26.702;2023-04-25T02:51:55;98453.00;;;8.40
68743;BMP180;55725;42.758;26.702;2023-04-25T02:53:35;98453.00;;;8.40
68743;BMP180;55725;42.758;26.702;2023-04-25T02:55:16;98450.00;;;8.10
68743;BMP180;55725;42.758;26.702;2023-04-25T02:56:56;98444.00;;;8.00
68743;BMP180;55725;42.758;26.702;2023-04-25T02:58:36;98443.00;;;8.20
68743;BMP180;55725;42.758;26.702;2023-04-25T03:00:17;98436.00;;;7.90
68743;BMP180;55725;42.758;26.702;2023-04-25T03:01:57;98441.00;;;8.00
68743;BMP180;55725;42.758;26.702;2023-04-25T03:03:37;98444.00;;;8.00
68743;BMP180;55725;42.758;26.702;2023-04-25T03:05:18;98453.00;;;7.80
68743;BMP180;55725;42.758;26.702;2023-04-25T03:06:58;98466.00;;;7.40
68743;BMP180;55725;42.758;26.702;2023-04-25T03:08:39;98471.00;;;8.00
68743;BMP180;55725;42.758;26.702;2023-04-25T03:10:19;98470.00;;;8.00
68743;BMP180;55725;42.758;26.702;2023-04-25T03:11:59;98468.00;;;8.00
68743;BMP180;55725;42.758;26.702;2023-04-25T03:13:40;98474.00;;;8.40
68743;BMP180;55725;42.758;26.702;2023-04-25T03:15:20;98476.00;;;8.10
68743;BMP180;55725;42.758;26.702;2023-04-25T03:17:00;98470.00;;;8.20
68743;BMP180;55725;42.758;26.702;2023-04-25T03:18:41;98468.00;;;7.80
68743;BMP180;55725;42.758;26.702;2023-04-25T03:20:21;98470.00;;;8.10
68743;BMP180;55725;42.758;26.702;2023-04-25T03:22:01;98470.00;;;8.30
68743;BMP180;55725;42.758;26.702;2023-04-25T03:23:42;98467.00;;;8.10
68743;BMP180;55725;42.758;26.702;2023-04-25T03:25:22;98466.00;;;8.30
68743;BMP180;55725;42.758;26.702;2023-04-25T03:27:03;98461.00;;;8.80
68743;BMP180;55725;42.758;26.702;2023-04-25T03:28:43;98461.00;;;8.70
68743;BMP180;55725;42.758;26.702;2023-04-25T03:30:23;98450.00;;;8.70
68743;BMP180;55725;42.758;26.702;2023-04-25T03:32:04;98444.00;;;8.40
68743;BMP180;55725;42.758;26.702;2023-04-25T03:33:44;98453.00;;;8.10
68743;BMP180;55725;42.758;26.702;2023-04-25T03:35:24;98441.00;;;8.30
68743;BMP180;55725;42.758;26.702;2023-04-25T03:37:05;98444.00;;;8.40
68743;BMP180;55725;42.758;26.702;2023-04-25T03:38:45;98454.00;;;8.30
68743;BMP180;55725;42.758;26.702;2023-04-25T03:40:25;98442.00;;;8.60
68743;BMP180;55725;42.758;26.702;2023-04-25T03:42:06;98439.00;;;8.40
68743;BMP180;55725;42.758;26.702;2023-04-25T03:43:46;98451.00;;;8.60
68743;BMP180;55725;42.758;26.702;2023-04-25T03:45:26;98430.00;;;8.40
68743;BMP180;55725;42.758;26.702;2023-04-25T03:47:07;98444.00;;;8.40
68743;BMP180;55725;42.758;26.702;2023-04-25T03:48:47;98447.00;;;8.50
68743;BMP180;55725;42.758;26.702;2023-04-25T03:50:27;98452.00;;;8.50
68743;BMP180;55725;42.758;26.702;2023-04-25T03:52:08;98447.00;;;8.50
68743;BMP180;55725;42.758;26.702;2023-04-25T03:53:48;98447.00;;;8.60
68743;BMP180;55725;42.758;26.702;2023-04-25T03:55:28;98455.00;;;8.60
68743;BMP180;55725;42.758;26.702;2023-04-25T03:57:08;98454.00;;;8.40
68743;BMP180;55725;42.758;26.702;2023-04-25T03:58:49;98451.00;;;8.10
68743;BMP180;55725;42.758;26.702;2023-04-25T04:00:29;98443.00;;;8.40
68743;BMP180;55725;42.758;26.702;2023-04-25T04:02:10;98448.00;;;8.10
68743;BMP180;55725;42.758;26.702;2023-04-25T04:03:50;98451.00;;;8.60
68743;BMP180;55725;42.758;26.702;2023-04-25T04:05:30;98449.00;;;8.70
68743;BMP180;55725;42.758;26.702;2023-04-25T04:07:12;98451.00;;;8.60
68743;BMP180;55725;42.758;26.702;2023-04-25T04:08:53;98448.00;;;8.60
68743;BMP180;55725;42.758;26.702;2023-04-25T04:10:33;98455.00;;;8.40
68743;BMP180;55725;42.758;26.702;2023-04-25T04:12:13;98449.00;;;8.80
68743;BMP180;55725;42.758;26.702;2023-04-25T04:13:53;98446.00;;;8.40
68743;BMP180;55725;42.758;26.702;2023-04-25T04:15:34;98453.00;;;8.20
68743;BMP180;55725;42.758;26.702;2023-04-25T04:17:14;98451.00;;;8.20
68743;BMP180;55725;42.758;26.702;2023-04-25T04:18:55;98461.00;;;8.20
68743;BMP180;55725;42.758;26.702;2023-04-25T04:20:35;98456.00;;;8.60
68743;BMP180;55725;42.758;26.702;2023-04-25T04:22:15;98454.00;;;9.30
68743;BMP180;55725;42.758;26.702;2023-04-25T04:23:56;98455.00;;;9.00
68743;BMP180;55725;42.758;26.702;2023-04-25T04:25:37;98454.00;;;9.10
68743;BMP180;55725;42.758;26.702;2023-04-25T04:27:18;98458.00;;;9.30
68743;BMP180;55725;42.758;26.702;2023-04-25T04:28:59;98449.00;;;9.10
68743;BMP180;55725;42.758;26.702;2023-04-25T04:30:40;98445.00;;;9.20
68743;BMP180;55725;42.758;26.702;2023-04-25T04:32:21;98445.00;;;9.10
68743;BMP180;55725;42.758;26.702;2023-04-25T04:34:03;98442.00;;;9.30
68743;BMP180;55725;42.758;26.702;2023-04-25T04:35:45;98440.00;;;9.90
68743;BMP180;55725;42.758;26.702;2023-04-25T04:37:26;98435.00;;;9.80
68743;BMP180;55725;42.758;26.702;2023-04-25T04:39:07;98438.00;;;9.60
68743;BMP180;55725;42.758;26.702;2023-04-25T04:40:49;98437.00;;;9.90
68743;BMP180;55725;42.758;26.702;2023-04-25T04:42:30;98441.00;;;10.20
68743;BMP180;55725;42.758;26.702;2023-04-25T04:44:10;98448.00;;;9.40
68743;BMP180;55725;42.758;26.702;2023-04-25T04:45:50;98451.00;;;9.30
68743;BMP180;55725;42.758;26.702;2023-04-25T04:47:31;98459.00;;;9.50
68743;BMP180;55725;42.758;26.702;2023-04-25T04:49:12;98453.00;;;9.50
68743;BMP180;55725;42.758;26.702;2023-04-25T04:50:53;98447.00;;;10.20
68743;BMP180;55725;42.758;26.702;2023-04-25T04:52:34;98449.00;;;10.50
68743;BMP180;55725;42.758;26.702;2023-04-25T04:54:14;98451.00;;;10.30
68743;BMP180;55725;42.758;26.702;2023-04-25T04:55:54;98445.00;;;10.20
68743;BMP180;55725;42.758;26.702;2023-04-25T04:57:35;98443.00;;;10.00
68743;BMP180;55725;42.758;26.702;2023-04-25T04:59:15;98451.00;;;10.30
68743;BMP180;55725;42.758;26.702;2023-04-25T05:00:56;98444.00;;;10.50
68743;BMP180;55725;42.758;26.702;2023-04-25T05:02:37;98444.00;;;10.70
68743;BMP180;55725;42.758;26.702;2023-04-25T05:04:18;98438.00;;;10.40
68743;BMP180;55725;42.758;26.702;2023-04-25T05:05:58;98420.00;;;10.70
68743;BMP180;55725;42.758;26.702;2023-04-25T05:07:38;98426.00;;;10.50
68743;BMP180;55725;42.758;26.702;2023-04-25T05:09:19;98425.00;;;10.60
68743;BMP180;55725;42.758;26.702;2023-04-25T05:10:59;98409.00;;;11.10
68743;BMP180;55725;42.758;26.702;2023-04-25T05:12:40;98406.00;;;11.30
68743;BMP180;55725;42.758;26.702;2023-04-25T05:14:20;98398.00;;;11.40
68743;BMP180;55725;42.758;26.702;2023-04-25T05:16:01;98395.00;;;11.50
68743;BMP180;55725;42.758;26.702;2023-04-25T05:17:42;98381.00;;;11.70
68743;BMP180;55725;42.758;26.702;2023-04-25T05:19:22;98413.00;;;11.70
68743;BMP180;55725;42.758;26.702;2023-04-25T05:21:03;98413.00;;;11.70
68743;BMP180;55725;42.758;26.702;2023-04-25T05:22:43;98398.00;;;12.00
68743;BMP180;55725;42.758;26.702;2023-04-25T05:24:24;98392.00;;;12.00
68743;BMP180;55725;42.758;26.702;2023-04-25T05:26:04;98407.00;;;12.10
68743;BMP180;55725;42.758;26.702;2023-04-25T05:27:45;98396.00;;;12.40
68743;BMP180;55725;42.758;26.702;2023-04-25T05:29:25;98382.00;;;12.60
68743;BMP180;55725;42.758;26.702;2023-04-25T05:31:06;98403.00;;;12.80
68743;BMP180;55725;42.758;26.702;2023-04-25T05:32:46;98395.00;;;12.30
68743;BMP180;55725;42.758;26.702;2023-04-25T05:34:27;98390.00;;;13.00
68743;BMP180;55725;42.758;26.702;2023-04-25T05:36:07;98401.00;;;13.00
68743;BMP180;55725;42.758;26.702;2023-04-25T05:37:48;98399.00;;;12.30
68743;BMP180;55725;42.758;26.702;2023-04-25T05:39:28;98402.00;;;12.50
68743;BMP180;55725;42.758;26.702;2023-04-25T05:41:08;98406.00;;;12.50
68743;BMP180;55725;42.758;26.702;2023-04-25T05:42:49;98398.00;;;12.20
68743;BMP180;55725;42.758;26.702;2023-04-25T05:44:29;98398.00;;;12.50
68743;BMP180;55725;42.758;26.702;2023-04-25T05:46:10;98399.00;;;12.40
68743;BMP180;55725;42.758;26.702;2023-04-25T05:47:50;98401.00;;;12.30
68743;BMP180;55725;42.758;26.702;2023-04-25T05:49:31;98414.00;;;12.70
68743;BMP180;55725;42.758;26.702;2023-04-25T05:51:11;98400.00;;;12.30
68743;BMP180;55725;42.758;26.702;2023-04-25T05:52:51;98398.00;;;12.10
68743;BMP180;55725;42.758;26.702;2023-04-25T05:54:32;98394.00;;;12.20
68743;BMP180;55725;42.758;26.702;2023-04-25T05:56:12;98403.00;;;12.30
68743;BMP180;55725;42.758;26.702;2023-04-25T05:57:53;98393.00;;;11.90
68743;BMP180;55725;42.758;26.702;2023-04-25T05:59:33;98390.00;;;12.30
68743;BMP180;55725;42.758;26.702;2023-04-25T06:01:14;98395.00;;;12.20
68743;BMP180;55725;42.758;26.702;2023-04-25T06:02:54;98400.00;;;12.20
68743;BMP180;55725;42.758;26.702;2023-04-25T06:04:34;98384.00;;;12.60
68743;BMP180;55725;42.758;26.702;2023-04-25T06:06:15;98396.00;;;12.10
68743;BMP180;55725;42.758;26.702;2023-04-25T06:07:55;98397.00;;;12.60
68743;BMP180;55725;42.758;26.702;2023-04-25T06:09:35;98400.00;;;12.80
68743;BMP180;55725;42.758;26.702;2023-04-25T06:11:16;98390.00;;;12.90
68743;BMP180;55725;42.758;26.702;2023-04-25T06:12:57;98405.00;;;12.70
68743;BMP180;55725;42.758;26.702;2023-04-25T06:14:37;98396.00;;;12.90
68743;BMP180;55725;42.758;26.702;2023-04-25T06:16:17;98398.00;;;12.60
68743;BMP180;55725;42.758;26.702;2023-04-25T06:17:58;98398.00;;;12.70
68743;BMP180;55725;42.758;26.702;2023-04-25T06:19:38;98399.00;;;12.80
68743;BMP180;55725;42.758;26.702;2023-04-25T06:21:18;98396.00;;;12.70
68743;BMP180;55725;42.758;26.702;2023-04-25T06:22:58;98388.00;;;12.70
68743;BMP180;55725;42.758;26.702;2023-04-25T06:24:39;98393.00;;;13.00
68743;BMP180;55725;42.758;26.702;2023-04-25T06:26:19;98395.00;;;12.90
68743;BMP180;55725;42.758;26.702;2023-04-25T06:28:00;98385.00;;;13.00
68743;BMP180;55725;42.758;26.702;2023-04-25T06:29:40;98388.00;;;13.30
68743;BMP180;55725;42.758;26.702;2023-04-25T06:31:20;98390.00;;;13.20
68743;BMP180;55725;42.758;26.702;2023-04-25T06:33:01;98376.00;;;13.40
68743;BMP180;55725;42.758;26.702;2023-04-25T06:34:41;98388.00;;;13.40
68743;BMP180;55725;42.758;26.702;2023-04-25T06:36:21;98378.00;;;13.30
68743;BMP180;55725;42.758;26.702;2023-04-25T06:38:07;98365.00;;;13.50
68743;BMP180;55725;42.758;26.702;2023-04-25T06:39:48;98377.00;;;13.60
68743;BMP180;55725;42.758;26.702;2023-04-25T06:41:29;98380.00;;;13.50
68743;BMP180;55725;42.758;26.702;2023-04-25T06:43:09;98385.00;;;13.40
68743;BMP180;55725;42.758;26.702;2023-04-25T06:44:50;98385.00;;;13.50
68743;BMP180;55725;42.758;26.702;2023-04-25T06:46:30;98382.00;;;13.60
68743;BMP180;55725;42.758;26.702;2023-04-25T06:48:10;98387.00;;;13.50
68743;BMP180;55725;42.758;26.702;2023-04-25T06:49:50;98381.00;;;13.60
68743;BMP180;55725;42.758;26.702;2023-04-25T06:51:31;98377.00;;;13.60
68743;BMP180;55725;42.758;26.702;2023-04-25T06:53:11;98388.00;;;13.20
68743;BMP180;55725;42.758;26.702;2023-04-25T06:54:52;98403.00;;;13.40
68743;BMP180;55725;42.758;26.702;2023-04-25T06:56:32;98404.00;;;13.50
68743;BMP180;55725;42.758;26.702;2023-04-25T06:58:12;98406.00;;;13.70
68743;BMP180;55725;42.758;26.702;2023-04-25T06:59:53;98399.00;;;13.60
68743;BMP180;55725;42.758;26.702;2023-04-25T07:01:33;98392.00;;;13.80
68743;BMP180;55725;42.758;26.702;2023-04-25T07:03:13;98392.00;;;13.80
68743;BMP180;55725;42.758;26.702;2023-04-25T07:04:53;98385.00;;;14.20
68743;BMP180;55725;42.758;26.702;2023-04-25T07:06:36;98385.00;;;14.10
68743;BMP180;55725;42.758;26.702;2023-04-25T07:08:22;98379.00;;;14.10
68743;BMP180;55725;42.758;26.702;2023-04-25T07:10:02;98376.00;;;14.30
68743;BMP180;55725;42.758;26.702;2023-04-25T07:11:43;98366.00;;;14.40
68743;BMP180;55725;42.758;26.702;2023-04-25T07:13:23;98373.00;;;14.30
68743;BMP180;55725;42.758;26.702;2023-04-25T07:15:03;98365.00;;;14.20
68743;BMP180;55725;42.758;26.702;2023-04-25T07:16:46;98360.00;;;14.40
68743;BMP180;55725;42.758;26.702;2023-04-25T07:18:26;98369.00;;;14.40
68743;BMP180;55725;42.758;26.702;2023-04-25T07:20:07;98374.00;;;14.40
68743;BMP180;55725;42.758;26.702;2023-04-25T07:21:49;98376.00;;;14.40
68743;BMP180;55725;42.758;26.702;2023-04-25T07:23:29;98373.00;;;14.50
68743;BMP180;55725;42.758;26.702;2023-04-25T07:25:10;98368.00;;;14.80
68743;BMP180;55725;42.758;26.702;2023-04-25T07:26:50;98368.00;;;15.00
68743;BMP180;55725;42.758;26.702;2023-04-25T07:28:30;98366.00;;;14.90
68743;BMP180;55725;42.758;26.702;2023-04-25T07:30:11;98362.00;;;14.70
68743;BMP180;55725;42.758;26.702;2023-04-25T07:31:52;98353.00;;;15.50
68743;BMP180;55725;42.758;26.702;2023-04-25T07:33:33;98365.00;;;15.30
68743;BMP180;55725;42.758;26.702;2023-04-25T07:35:13;98355.00;;;15.30
68743;BMP180;55725;42.758;26.702;2023-04-25T07:36:53;98363.00;;;15.30
68743;BMP180;55725;42.758;26.702;2023-04-25T07:38:34;98354.00;;;15.30
68743;BMP180;55725;42.758;26.702;2023-04-25T07:40:14;98350.00;;;15.70
68743;BMP180;55725;42.758;26.702;2023-04-25T07:41:57;98353.00;;;15.30
68743;BMP180;55725;42.758;26.702;2023-04-25T07:43:42;98354.00;;;14.90
68743;BMP180;55725;42.758;26.702;2023-04-25T07:45:22;98358.00;;;14.70
68743;BMP180;55725;42.758;26.702;2023-04-25T07:47:04;98355.00;;;15.40
68743;BMP180;55725;42.758;26.702;2023-04-25T07:48:45;98362.00;;;15.40
68743;BMP180;55725;42.758;26.702;2023-04-25T07:50:25;98358.00;;;15.30
68743;BMP180;55725;42.758;26.702;2023-04-25T07:52:06;98359.00;;;15.60
68743;BMP180;55725;42.758;26.702;2023-04-25T07:53:46;98360.00;;;15.50
68743;BMP180;55725;42.758;26.702;2023-04-25T07:55:26;98361.00;;;15.50
68743;BMP180;55725;42.758;26.702;2023-04-25T07:57:07;98342.00;;;15.60
68743;BMP180;55725;42.758;26.702;2023-04-25T07:58:47;98354.00;;;15.50
68743;BMP180;55725;42.758;26.702;2023-04-25T08:00:28;98349.00;;;15.40
68743;BMP180;55725;42.758;26.702;2023-04-25T08:02:08;98358.00;;;15.50
68743;BMP180;55725;42.758;26.702;2023-04-25T08:03:48;98373.00;;;15.60
68743;BMP180;55725;42.758;26.702;2023-04-25T08:05:29;98360.00;;;15.50
68743;BMP180;55725;42.758;26.702;2023-04-25T08:07:09;98359.00;;;15.50
68743;BMP180;55725;42.758;26.702;2023-04-25T08:08:50;98355.00;;;15.50
68743;BMP180;55725;42.758;26.702;2023-04-25T08:10:30;98345.00;;;15.80
68743;BMP180;55725;42.758;26.702;2023-04-25T08:12:10;98347.00;;;15.90
68743;BMP180;55725;42.758;26.702;2023-04-25T08:13:51;98348.00;;;15.80
68743;BMP180;55725;42.758;26.702;2023-04-25T08:15:32;98352.00;;;15.90
68743;BMP180;55725;42.758;26.702;2023-04-25T08:17:12;98361.00;;;16.10
68743;BMP180;55725;42.758;26.702;2023-04-25T08:18:52;98345.00;;;16.10
68743;BMP180;55725;42.758;26.702;2023-04-25T08:20:32;98343.00;;;16.00
68743;BMP180;55725;42.758;26.702;2023-04-25T08:22:13;98348.00;;;16.30
68743;BMP180;55725;42.758;26.702;2023-04-25T08:23:53;98329.00;;;16.60
68743;BMP180;55725;42.758;26.702;2023-04-25T08:25:33;98330.00;;;16.50
68743;BMP180;55725;42.758;26.702;2023-04-25T08:27:14;98330.00;;;16.90
68743;BMP180;55725;42.758;26.702;2023-04-25T08:28:54;98324.00;;;16.80
68743;BMP180;55725;42.758;26.702;2023-04-25T08:30:34;98329.00;;;17.50
68743;BMP180;55725;42.758;26.702;2023-04-25T08:32:15;98328.00;;;17.00
68743;BMP180;55725;42.758;26.702;2023-04-25T08:33:55;98327.00;;;16.80
68743;BMP180;55725;42.758;26.702;2023-04-25T08:35:35;98334.00;;;17.00
68743;BMP180;55725;42.758;26.702;2023-04-25T08:37:16;98337.00;;;16.50
68743;BMP180;55725;42.758;26.702;2023-04-25T08:38:56;98322.00;;;16.60
68743;BMP180;55725;42.758;26.702;2023-04-25T08:40:37;98329.00;;;16.80
68743;BMP180;55725;42.758;26.702;2023-04-25T08:42:18;98321.00;;;16.90
68743;BMP180;55725;42.758;26.702;2023-04-25T08:44:00;98310.00;;;17.00
68743;BMP180;55725;42.758;26.702;2023-04-25T08:45:41;98328.00;;;17.20
68743;BMP180;55725;42.758;26.702;2023-04-25T08:47:23;98332.00;;;17.10
68743;BMP180;55725;42.758;26.702;2023-04-25T08:49:04;98336.00;;;17.00
68743;BMP180;55725;42.758;26.702;2023-04-25T08:50:45;98250.00;;;17.00
68743;BMP180;55725;42.758;26.702;2023-04-25T08:52:28;98290.00;;;18.00
68743;BMP180;55725;42.758;26.702;2023-04-25T08:54:11;98238.00;;;17.80
68743;BMP180;55725;42.758;26.702;2023-04-25T08:55:53;98299.00;;;18.20
68743;BMP180;55725;42.758;26.702;2023-04-25T08:57:34;98261.00;;;18.60
68743;BMP180;55725;42.758;26.702;2023-04-25T08:59:14;98259.00;;;18.20
68743;BMP180;55725;42.758;26.702;2023-04-25T09:00:55;98233.00;;;18.90
68743;BMP180;55725;42.758;26.702;2023-04-25T09:02:35;98235.00;;;18.80
68743;BMP180;55725;42.758;26.702;2023-04-25T09:04:16;98244.00;;;18.90
68743;BMP180;55725;42.758;26.702;2023-04-25T09:05:57;98332.00;;;18.10
68743;BMP180;55725;42.758;26.702;2023-04-25T09:07:38;98325.00;;;17.80
68743;BMP180;55725;42.758;26.702;2023-04-25T09:09:18;98300.00;;;17.70
68743;BMP180;55725;42.758;26.702;2023-04-25T09:10:58;98279.00;;;17.70
68743;BMP180;55725;42.758;26.702;2023-04-25T09:12:38;98252.00;;;18.20
68743;BMP180;55725;42.758;26.702;2023-04-25T09:14:20;98245.00;;;18.90
68743;BMP180;55725;42.758;26.702;2023-04-25T09:16:01;98252.00;;;19.30
68743;BMP180;55725;42.758;26.702;2023-04-25T09:17:41;98236.00;;;19.50
68743;BMP180;55725;42.758;26.702;2023-04-25T09:19:28;98254.00;;;19.00
68743;BMP180;55725;42.758;26.702;2023-04-25T09:21:09;98245.00;;;19.10
68743;BMP180;55725;42.758;26.702;2023-04-25T09:22:59;98246.00;;;19.60
68743;BMP180;55725;42.758;26.702;2023-04-25T09:24:42;98249.00;;;19.30
68743;BMP180;55725;42.758;26.702;2023-04-25T09:26:23;98248.00;;;19.40
68743;BMP180;55725;42.758;26.702;2023-04-25T09:28:06;98236.00;;;20.50
68743;BMP180;55725;42.758;26.702;2023-04-25T09:29:46;98237.00;;;19.20
68743;BMP180;55725;42.758;26.702;2023-04-25T09:31:26;98246.00;;;19.30
68743;BMP180;55725;42.758;26.702;2023-04-25T09:33:08;98248.00;;;20.30
68743;BMP180;55725;42.758;26.702;2023-04-25T09:34:52;98245.00;;;20.80